Last 24 Hours

OV-Belmont 8000'

Hourly Data | America/Los_Angeles
as of 6/27/22 4:41 PM PDT
Date & Time Temp (°F) RH (%) Dew Pt (°F) Wet Bulb (°F) Wind Dir (°) Wind Spd (mph) Wind Gust (mph) WindChill (°F) Latest Rain (In) New Snow (in) SnowDepth (in) Daily Min Temp (°F) Daily Max Temp (°F) Daily Rain (In)
6/27/22 - 1600 69.4 20 26.9 47.7 SW | 229 11.6 26.4 69.3 0.00 0.0 9.4 58.7 71.0 0.00
6/27/22 - 1500 69.2 22 28.5 48.1 SW | 234 9.5 23.3 69.4 0.00 0.0 9.8 58.7 71.0 0.00
6/27/22 - 1400 69.5 22 28.7 48.3 SW | 229 9.6 22.5 69.3 0.00 0.0 9.8 58.7 71.0 0.00
6/27/22 - 1300 68.6 23 29.1 48.0 SW | 226 8.8 18.7 69.4 0.00 0.0 9.7 58.7 71.0 0.00
6/27/22 - 1200 70.0 25 32.8 49.8 SSW | 206 9.8 21.2 69.0 0.00 0.0 9.6 58.7 70.3 0.00
6/27/22 - 1100 68.0 26 31.4 48.5 SSW | 211 11.9 21.3 67.5 0.00 0.0 9.5 58.7 68.6 0.00
6/27/22 - 1000 67.2 25 29.8 47.7 SSW | 206 10.5 18.0 66.6 0.00 0.0 9.3 58.7 67.6 0.00
6/27/22 - 0900 65.9 20 23.4 45.3 SSW | 204 9.2 16.9 65.1 0.00 0.0 9.4 58.7 66.0 0.00
6/27/22 - 0800 64.6 19 21.6 44.2 SSW | 204 8.9 15.1 64.0 0.00 0.0 9.3 58.7 64.6 0.00
6/27/22 - 0700 63.5 20 21.2 43.6 SSW | 209 8.0 14.5 62.3 0.00 0.0 9.1 58.7 63.5 0.00
6/27/22 - 0600 61.5 16 15.0 41.4 SW | 216 6.1 10.9 60.9 0.00 0.0 9.1 58.7 62.2 0.00
6/27/22 - 0500 61.2 10 4.8 39.5 SW | 227 6.3 10.0 60.8 0.00 0.0 9.0 58.7 62.2 0.00
6/27/22 - 0400 59.9 11 5.0 38.8 WSW | 249 2.3 6.3 60.2 0.00 0.0 9.2 58.7 62.2 0.00
6/27/22 - 0300 62.1 8 0.8 39.3 WSW | 244 0.9 4.3 61.4 0.00 0.0 8.8 60.0 62.2 0.00
6/27/22 - 0200 61.1 13 9.4 40.1 NW | 315 0.1 1.8 61.3 0.00 0.0 9.1 60.0 61.8 0.00
6/27/22 - 0100 61.6 15 12.7 40.9 NW | 326 0.9 2.8 60.8 0.00 0.0 9.0 60.0 61.6 0.00
6/27/22 - 0000 60.0 15 12.7 40.2 NNW | 330 0.5 2.4 60.4 0.00 0.0 9.0 56.0 74.5 0.00
6/26/22 - 2300 60.4 11 6.2 39.3 WNW | 297 0.7 3.0 60.2 0.00 0.0 8.7 56.0 74.5 0.00
6/26/22 - 2200 62.1 20 20.1 42.8 WSW | 244 6.6 11.6 62.9 0.00 0.0 9.0 56.0 74.5 0.00
6/26/22 - 2100 62.5 29 29.5 45.6 WSW | 248 7.1 14.7 62.3 0.00 0.0 9.0 56.0 74.5 0.00
6/26/22 - 2000 62.8 34 34.0 47.3 WSW | 243 9.0 18.4 64.2 0.00 0.0 9.0 56.0 74.5 0.00
6/26/22 - 1900 65.3 32 34.5 48.5 WSW | 240 11.0 20.0 67.1 0.00 0.0 9.1 56.0 74.5 0.00
6/26/22 - 1800 69.5 28 34.9 50.3 SW | 222 11.4 19.7 69.7 0.00 0.0 9.0 56.0 74.5 0.00
6/26/22 - 1700 68.8 27 33.9 49.8 SW | 225 10.0 20.1 71.0 0.00 0.0 9.2 56.0 74.5 0.00
6/26/22 - 1600 71.5 30 38.4 52.5 SW | 214 8.7 18.8 71.7 0.00 0.0 9.2 56.0 74.5 0.00
Max 71.5 34 38.4 52.5 - 11.9 26.4 71.7 0.00 0.0 9.8 60.0 74.5 0.00
Avg 65.0 21 22.6 45.1 - 7.2 14.5 65.1 0.00 0.0 9.2 - - -
Min 59.9 8 0.8 38.8 - 0.1 1.8 60.2 0.00 0.0 8.7 56.0 61.6 0.00
Total - - - - - - - - 0.00 - - - - -